Terminal Aerodrome Forecast
Issued by NWS Duluth, MN

Home | Current Version | Previous Version | Text Only | Print | Product List | Glossary On
Versions: 1 2 3 4 5 6 7 8 9 10 11 12 13 14 15 16 17 18 19 20 21 22 23 24 25 26 27 28 29 30 31 32
241
FTUS43 KDLH 170616 AAB
TAFDLH
TAF AMD
KDLH 170616Z 1706/1806 00000KT P6SM SKC
     FM170900 VRB03KT 2SM BR SCT005 BKN150
      TEMPO 1712/1715 1SM BR SCT003
     FM171700 25007KT P6SM SKC=

USA.gov is the U.S. government's official web portal to all federal, state and local government web resources and services.